Terminal Aerodrome Forecast
Issued by NWS

Home | Current Version | Previous Version | Text Only | Print | Product List | Glossary On
Versions: 1 2 3 4 5 6 7 8 9 10 11 12 13 14 15 16 17 18 19 20 21 22 23 24 25 26 27 28 29 30 31 32
000
FTUS42 KJAX 020536
TAFCRG
TAF
KCRG 020536Z 0206/0306 17008KT P6SM SCT020 BKN035
     FM020700 18007KT P6SM BKN010
     FM021600 20013KT P6SM SCT020 BKN060
     FM021900 21015G20KT P6SM VCTS BKN020CB
     FM030200 18010KT P6SM SCT020 SCT060=

USA.gov is the U.S. government's official web portal to all federal, state and local government web resources and services.